Time;durP1;ratioP1;P1;durP2;ratioP2;P2;SDS_P1;SDS_P2;PMS_P1;PMS_P2;Temp;Humidity;BMP_temperature;BMP_pressure;BME280_temperature;BME280_humidity;BME280_pressure;Samples;Min_cycle;Max_cycle;Signal;HPM_P1;HPM_P2
2022/04/29 00:02:03;;;;;;;8.68;5.53;;;;;;;22.25;52.50;99692.70;1655217;86;25672;-87
2022/04/29 00:04:29;;;;;;;9.88;5.78;;;;;;;22.27;52.50;99695.13;1655624;85;26970;-86
2022/04/29 00:06:54;;;;;;;9.85;5.42;;;;;;;22.26;52.48;99688.75;1655671;85;25712;-86
2022/04/29 00:09:21;;;;;;;8.83;5.62;;;;;;;22.26;52.46;99683.74;1655736;85;27407;-86
2022/04/29 00:11:47;;;;;;;9.48;5.80;;;;;;;22.27;52.46;99684.77;1655353;86;25757;-86
2022/04/29 00:14:13;;;;;;;9.40;5.42;;;;;;;22.28;52.46;99682.19;1655335;85;25880;-86
2022/04/29 00:16:39;;;;;;;10.70;5.60;;;;;;;22.29;52.45;99681.61;1655673;86;25895;-85
2022/04/29 00:19:05;;;;;;;9.48;5.83;;;;;;;22.30;52.42;99681.82;1655851;85;25651;-86
2022/04/29 00:21:31;;;;;;;9.40;5.33;;;;;;;22.30;52.41;99684.03;1655650;85;27488;-85
2022/04/29 00:23:57;;;;;;;10.82;5.92;;;;;;;22.31;52.41;99684.24;1655573;86;25858;-85
2022/04/29 00:26:22;;;;;;;9.53;5.60;;;;;;;22.31;52.40;99688.44;1655739;86;25710;-85
2022/04/29 00:28:48;;;;;;;8.85;5.72;;;;;;;22.33;52.42;99683.09;1655455;85;26052;-86
2022/04/29 00:31:14;;;;;;;9.40;6.05;;;;;;;22.33;52.39;99690.86;1655745;85;25493;-86
2022/04/29 00:33:40;;;;;;;8.88;5.65;;;;;;;22.33;52.39;99690.86;1655606;86;27445;-85
2022/04/29 00:36:08;;;;;;;8.68;5.10;;;;;;;22.34;52.38;99693.89;1655598;86;25465;-85
2022/04/29 00:38:33;;;;;;;9.18;5.40;;;;;;;22.35;52.38;99689.09;1655747;85;25710;-85
2022/04/29 00:41:00;;;;;;;9.60;5.75;;;;;;;22.37;52.38;99693.73;1655556;85;26817;-85
2022/04/29 00:43:27;;;;;;;11.00;5.30;;;;;;;22.38;52.38;99689.75;1655676;85;25759;-86
2022/04/29 00:45:53;;;;;;;9.15;5.30;;;;;;;22.38;52.35;99687.78;1655322;85;28286;-85
2022/04/29 00:48:19;;;;;;;8.88;5.30;;;;;;;22.39;52.35;99685.80;1655453;86;25604;-86
2022/04/29 00:50:45;;;;;;;8.28;5.35;;;;;;;22.39;52.35;99682.41;1655563;86;25668;-86
2022/04/29 00:53:13;;;;;;;7.65;4.87;;;;;;;22.41;52.34;99683.43;1655687;85;26851;-85
2022/04/29 00:55:40;;;;;;;8.85;5.17;;;;;;;22.41;52.36;99684.25;1655610;85;25780;-86
2022/04/29 00:58:23;;;;;;;9.25;5.42;;;;;;;22.42;52.33;99682.24;1644017;86;27561;-86
2022/04/29 01:00:50;;;;;;;8.55;5.25;;;;;;;22.43;52.33;99679.69;1655706;85;25698;-86
2022/04/29 01:03:17;;;;;;;9.48;5.30;;;;;;;22.42;52.34;99671.08;1655573;85;25627;-86
2022/04/29 01:05:44;;;;;;;9.18;5.33;;;;;;;22.43;52.33;99679.69;1655647;86;26097;-86
2022/04/29 01:08:11;;;;;;;8.98;5.10;;;;;;;22.43;52.32;99680.48;1655663;86;25631;-86
2022/04/29 01:10:37;;;;;;;8.58;5.42;;;;;;;22.44;52.32;99676.53;1655331;85;27431;-86
2022/04/29 01:13:05;;;;;;;8.20;5.20;;;;;;;22.45;52.34;99674.52;1655491;86;25904;-86
2022/04/29 01:15:32;;;;;;;8.95;5.37;;;;;;;22.47;52.33;99675.55;1655531;86;25619;-86
2022/04/29 01:18:09;;;;;;;8.70;5.00;;;;;;;22.47;52.33;99670.78;1655487;86;26207;-86
2022/04/29 01:20:36;;;;;;;8.35;5.40;;;;;;;22.48;52.33;99672.39;1655439;85;25661;-86
2022/04/29 01:23:07;;;;;;;8.50;5.30;;;;;;;22.48;52.33;99670.99;1655505;86;28357;-85
2022/04/29 01:25:34;;;;;;;8.25;5.00;;;;;;;22.49;52.34;99674.02;1655461;85;25816;-85
2022/04/29 01:28:00;;;;;;;8.23;5.37;;;;;;;22.49;52.31;99667.04;1655532;85;25993;-86
2022/04/29 01:30:26;;;;;;;9.53;5.17;;;;;;;22.51;52.34;99673.66;1655277;85;26143;-87
2022/04/29 01:32:53;;;;;;;8.55;5.08;;;;;;;22.51;52.32;99670.25;1655569;85;25787;-85
2022/04/29 01:35:20;;;;;;;8.50;5.37;;;;;;;22.52;52.32;99669.67;1655396;85;27493;-86
2022/04/29 01:37:46;;;;;;;8.63;4.92;;;;;;;22.53;52.33;99666.51;1655570;85;25704;-86
2022/04/29 01:40:13;;;;;;;9.00;4.85;;;;;;;22.54;52.32;99668.72;1655603;86;25468;-85
2022/04/29 01:42:41;;;;;;;8.53;5.12;;;;;;;22.54;52.32;99666.72;1655500;86;26951;-85
2022/04/29 01:45:09;;;;;;;8.08;4.90;;;;;;;22.54;52.34;99663.92;1655472;86;25627;-86
2022/04/29 01:47:35;;;;;;;8.15;5.00;;;;;;;22.55;52.30;99666.95;1655265;86;27441;-85
2022/04/29 01:50:02;;;;;;;8.98;5.53;;;;;;;22.58;52.32;99664.03;1655464;85;25811;-86
2022/04/29 01:52:28;;;;;;;8.93;5.10;;;;;;;22.59;52.29;99662.05;1655651;85;25735;-86
2022/04/29 01:54:54;;;;;;;10.10;5.78;;;;;;;22.60;52.32;99666.45;1655665;85;26773;-85
2022/04/29 01:57:20;;;;;;;8.85;5.17;;;;;;;22.60;52.32;99658.08;1655604;85;25702;-85
2022/04/29 01:59:47;;;;;;;8.53;5.05;;;;;;;22.60;52.32;99651.09;1655540;85;27450;-85
2022/04/29 02:02:12;;;;;;;8.65;5.25;;;;;;;22.61;52.32;99657.70;1655504;85;25828;-85
2022/04/29 02:04:39;;;;;;;8.40;5.25;;;;;;;22.61;52.33;99650.72;1655510;85;26111;-85
2022/04/29 02:07:07;;;;;;;7.40;4.97;;;;;;;22.62;52.32;99649.53;1655672;85;25983;-86
2022/04/29 02:09:33;;;;;;;7.67;5.00;;;;;;;22.65;52.31;99649.40;1655642;86;25481;-85
2022/04/29 02:12:05;;;;;;;8.10;5.40;;;;;;;22.65;52.30;99652.98;1655694;85;27379;-85
2022/04/29 02:14:35;;;;;;;8.95;5.12;;;;;;;22.66;52.33;99651.82;1655508;85;25489;-86
2022/04/29 02:17:04;;;;;;;10.05;5.65;;;;;;;22.67;52.29;99652.61;1655655;85;25686;-86
2022/04/29 02:19:30;;;;;;;7.10;4.67;;;;;;;22.67;52.30;99651.20;1655382;85;26879;-85
2022/04/29 02:21:57;;;;;;;7.87;5.15;;;;;;;22.68;52.31;99650.02;1655485;85;25672;-86
2022/04/29 02:24:24;;;;;;;8.48;5.15;;;;;;;22.68;52.29;99649.44;1655601;85;26852;-86
2022/04/29 02:26:50;;;;;;;7.75;4.67;;;;;;;22.70;52.32;99661.64;1655467;86;25653;-86
2022/04/29 02:29:16;;;;;;;7.67;4.95;;;;;;;22.71;52.31;99656.27;1657395;86;25461;-86
2022/04/29 02:31:42;;;;;;;7.30;4.62;;;;;;;22.72;52.30;99661.27;1663113;85;26004;-86
2022/04/29 02:34:08;;;;;;;7.30;4.90;;;;;;;22.74;52.34;99664.51;1653386;86;25935;-86
2022/04/29 02:36:34;;;;;;;7.92;5.08;;;;;;;22.74;52.30;99663.11;1663110;85;27565;-86
2022/04/29 02:39:01;;;;;;;8.35;4.92;;;;;;;22.75;52.29;99658.55;1662950;85;25678;-86
2022/04/29 02:41:28;;;;;;;8.65;5.15;;;;;;;22.76;52.29;99656.55;1662722;85;25605;-86
2022/04/29 02:43:54;;;;;;;7.72;4.65;;;;;;;22.76;52.29;99652.36;1662913;84;25964;-86
2022/04/29 02:46:20;;;;;;;7.30;5.12;;;;;;;22.77;52.28;99653.38;1662677;85;25737;-86
2022/04/29 02:48:48;;;;;;;9.08;5.53;;;;;;;22.76;52.30;99653.17;1663032;85;27385;-86
2022/04/29 02:51:15;;;;;;;8.50;5.03;;;;;;;22.78;52.28;99644.41;1662660;85;25683;-86
2022/04/29 02:53:42;;;;;;;7.95;4.70;;;;;;;22.78;52.29;99644.41;1662627;85;25638;-86
2022/04/29 02:56:08;;;;;;;8.98;5.25;;;;;;;22.79;52.30;99644.05;1663041;85;26224;-86
2022/04/29 02:58:34;;;;;;;8.53;4.80;;;;;;;22.80;52.30;99639.27;1663353;86;25728;-85
2022/04/29 03:01:02;;;;;;;8.08;4.92;;;;;;;22.80;52.29;99644.25;1663074;85;28271;-85
2022/04/29 03:03:29;;;;;;;8.80;5.22;;;;;;;22.81;52.29;99643.67;1662915;85;25899;-85
2022/04/29 03:05:55;;;;;;;8.73;5.35;;;;;;;22.83;52.28;99651.10;1662909;84;25746;-85
2022/04/29 03:08:21;;;;;;;6.70;4.62;;;;;;;22.83;52.28;99646.09;1662923;85;25884;-85
2022/04/29 03:10:47;;;;;;;8.55;4.85;;;;;;;22.84;52.28;99650.49;1662703;85;25563;-85
2022/04/29 03:13:16;;;;;;;7.25;4.62;;;;;;;22.84;52.28;99650.49;1663032;85;26811;-86
2022/04/29 03:15:43;;;;;;;8.43;5.05;;;;;;;22.84;52.29;99641.53;1662985;85;25758;-85
2022/04/29 03:18:23;;;;;;;8.10;5.25;;;;;;;22.86;52.28;99648.14;1662953;85;25681;-85
2022/04/29 03:20:56;;;;;;;7.80;5.03;;;;;;;22.85;52.27;99647.33;1662888;86;26075;-85
2022/04/29 03:23:23;;;;;;;8.35;5.30;;;;;;;22.86;52.27;99652.33;1662824;85;25728;-85
2022/04/29 03:25:49;;;;;;;6.67;4.70;;;;;;;22.85;52.28;99650.12;1662915;85;27554;-85
2022/04/29 03:28:15;;;;;;;6.67;4.47;;;;;;;22.86;52.28;99658.73;1662859;85;25711;-84
2022/04/29 03:30:42;;;;;;;8.30;5.05;;;;;;;22.86;52.28;99662.93;1662855;85;25616;-85
2022/04/29 03:33:09;;;;;;;8.45;5.05;;;;;;;22.87;52.29;99662.32;1662966;85;26234;-85
2022/04/29 03:35:42;;;;;;;8.00;4.92;;;;;;;22.87;52.27;99657.55;1662679;85;25715;-85
2022/04/29 03:38:08;;;;;;;7.20;5.10;;;;;;;22.86;52.28;99660.72;1662848;85;28478;-86
2022/04/29 03:40:35;;;;;;;6.87;4.62;;;;;;;22.88;52.29;99655.57;1663007;85;25834;-86
2022/04/29 03:43:02;;;;;;;7.60;4.95;;;;;;;22.87;52.29;99660.92;1663056;84;26038;-85
2022/04/29 03:45:29;;;;;;;9.10;5.22;;;;;;;22.87;52.30;99664.53;1670841;85;26062;-86
2022/04/29 03:47:55;;;;;;;8.25;4.85;;;;;;;22.87;52.32;99656.73;1680105;84;25763;-86
2022/04/29 03:50:23;;;;;;;7.72;4.55;;;;;;;22.89;52.30;99657.99;1679967;84;28337;-86
2022/04/29 03:52:57;;;;;;;7.05;4.80;;;;;;;22.89;52.31;99657.17;1639470;86;25755;-86
2022/04/29 03:55:26;;;;;;;7.80;4.83;;;;;;;22.88;52.32;99657.76;1639640;87;25828;-86
2022/04/29 03:57:54;;;;;;;6.87;4.67;;;;;;;22.88;52.32;99655.57;1650313;86;25964;-86
2022/04/29 04:00:22;;;;;;;7.53;4.83;;;;;;;22.89;52.32;99664.16;1680299;85;25712;-86
2022/04/29 04:02:48;;;;;;;7.78;4.78;;;;;;;22.90;52.33;99665.77;1639800;86;28464;-86
2022/04/29 04:05:14;;;;;;;7.15;4.47;;;;;;;22.89;52.31;99665.56;1650077;85;25492;-86
2022/04/29 04:07:40;;;;;;;7.95;4.87;;;;;;;22.90;52.32;99662.39;1677643;85;25658;-86
2022/04/29 04:10:07;;;;;;;7.25;5.00;;;;;;;22.90;52.34;99665.19;1639610;87;26014;-85
2022/04/29 04:12:53;;;;;;;7.12;4.80;;;;;;;22.90;52.34;99665.77;1650401;86;25729;-85
2022/04/29 04:15:19;;;;;;;6.67;4.67;;;;;;;22.90;52.34;99668.56;1679528;83;25831;-86
2022/04/29 04:17:47;;;;;;;8.03;5.08;;;;;;;22.92;52.36;99677.39;1679921;84;25709;-86
2022/04/29 04:20:16;;;;;;;8.23;5.28;;;;;;;22.91;52.34;99687.75;1639751;86;25722;-85
2022/04/29 04:22:42;;;;;;;11.43;5.80;;;;;;;22.91;52.32;99685.56;1650035;85;26281;-86
2022/04/29 04:25:13;;;;;;;8.43;5.53;;;;;;;22.90;52.31;99681.95;1680189;84;25630;-86
2022/04/29 04:27:39;;;;;;;;;;;;;;;22.91;52.25;99682.77;1642189;87;27398;-86
2022/04/29 04:30:07;;;;;;;10.80;5.85;;;;;;;22.90;52.16;99688.13;1679840;84;25868;-85
2022/04/29 04:32:36;;;;;;;8.70;5.80;;;;;;;22.89;52.18;99689.31;1679992;84;25780;-85
2022/04/29 04:35:03;;;;;;;10.40;6.05;;;;;;;22.90;52.23;99686.73;1680038;85;26098;-85
2022/04/29 04:37:32;;;;;;;8.50;5.85;;;;;;;22.89;52.26;99685.94;1639908;86;25701;-85
2022/04/29 04:39:58;;;;;;;9.13;5.60;;;;;;;22.89;52.27;99683.72;1668147;85;25885;-85
2022/04/29 04:42:24;;;;;;;8.05;5.33;;;;;;;22.89;52.28;99684.55;1639680;87;26156;-85
2022/04/29 04:44:52;;;;;;;10.13;5.92;;;;;;;22.90;52.32;99693.13;1639786;87;26151;-85
2022/04/29 04:47:19;;;;;;;9.30;6.03;;;;;;;22.90;52.33;99686.14;1650293;86;26808;-86
2022/04/29 04:49:45;;;;;;;9.33;5.75;;;;;;;22.92;52.36;99691.36;1680019;84;25734;-85
2022/04/29 04:52:11;;;;;;;7.97;5.80;;;;;;;22.91;52.37;99696.14;1639870;87;27552;-85
2022/04/29 04:54:38;;;;;;;9.08;5.22;;;;;;;22.91;52.39;99693.95;1639743;87;25747;-85
2022/04/29 04:57:06;;;;;;;7.55;5.30;;;;;;;22.91;52.40;99697.53;1639776;87;25715;-86
2022/04/29 04:59:32;;;;;;;8.85;5.80;;;;;;;22.91;52.40;99701.72;1639787;87;26075;-86
2022/04/29 05:01:59;;;;;;;10.45;5.90;;;;;;;22.92;52.42;99701.14;1650343;86;25631;-86
2022/04/29 05:04:25;;;;;;;8.68;5.72;;;;;;;22.92;52.45;99694.16;1680119;84;27486;-86
2022/04/29 05:06:55;;;;;;;10.05;6.10;;;;;;;22.93;52.43;99701.35;1639755;87;25641;-86
2022/04/29 05:09:21;;;;;;;7.60;5.45;;;;;;;22.93;51.93;99695.77;1639833;86;25474;-86
2022/04/29 05:11:47;;;;;;;9.15;6.25;;;;;;;22.93;51.93;99695.77;1650379;86;26932;-87
2022/04/29 05:14:14;;;;;;;9.25;6.15;;;;;;;22.94;52.34;99700.98;1680088;85;25701;-85
2022/04/29 05:16:40;;;;;;;9.40;5.92;;;;;;;22.93;52.39;99709.73;1639824;87;27624;-86
2022/04/29 05:19:06;;;;;;;9.63;6.10;;;;;;;22.94;52.41;99701.56;1639877;87;25697;-86
2022/04/29 05:21:32;;;;;;;9.80;6.40;;;;;;;22.93;52.46;99697.16;1639923;87;25658;-86
2022/04/29 05:23:58;;;;;;;10.18;6.80;;;;;;;22.93;52.53;99706.36;1650430;86;26058;-86
2022/04/29 05:26:25;;;;;;;9.20;6.17;;;;;;;22.94;52.52;99700.98;1680126;84;25733;-86
2022/04/29 05:28:51;;;;;;;10.85;6.60;;;;;;;22.93;52.55;99708.34;1639774;87;28033;-86
2022/04/29 05:31:18;;;;;;;11.45;7.12;;;;;;;22.93;52.56;99704.97;1636138;86;25880;-86
2022/04/29 05:33:44;;;;;;;9.50;6.50;;;;;;;22.95;52.51;99701.80;1645374;85;25497;-86
2022/04/29 05:36:12;;;;;;;10.13;6.55;;;;;;;22.97;52.49;99710.59;1675084;85;26151;-86
2022/04/29 05:44:09;;;;;;;9.73;6.87;;;;;;;22.99;52.58;99715.81;1674300;85;25824;-86
2022/04/29 05:46:35;;;;;;;10.28;6.80;;;;;;;22.99;52.63;99716.63;1634869;87;25733;-85
2022/04/29 05:49:04;;;;;;;12.47;7.30;;;;;;;23.00;52.61;99718.23;1634799;87;26226;-85
2022/04/29 05:51:30;;;;;;;11.95;8.00;;;;;;;23.04;52.58;99715.52;1645436;87;25683;-85
2022/04/29 05:53:56;;;;;;;12.90;7.95;;;;;;;23.05;52.51;99715.14;1674771;84;27399;-85
2022/04/29 05:56:23;;;;;;;12.40;7.70;;;;;;;23.08;52.51;99719.17;1634684;87;25776;-84
2022/04/29 05:58:50;;;;;;;13.95;7.90;;;;;;;23.09;52.50;99723.60;1634564;87;25666;-85
2022/04/29 06:01:16;;;;;;;14.15;8.45;;;;;;;23.10;52.53;99721.02;1644612;87;25947;-85
2022/04/29 06:03:42;;;;;;;12.10;7.80;;;;;;;23.12;52.59;99720.64;1664181;85;25406;-86
2022/04/29 06:06:08;;;;;;;11.88;7.70;;;;;;;23.14;52.65;99723.27;1633683;87;28209;-85
2022/04/29 06:08:35;;;;;;;11.73;7.95;;;;;;;23.16;52.77;99732.10;1634687;86;25524;-85
2022/04/29 06:11:01;;;;;;;13.40;7.78;;;;;;;23.18;52.89;99729.75;1645290;85;25486;-85
2022/04/29 06:13:27;;;;;;;11.15;7.95;;;;;;;23.19;52.92;99738.34;1674683;85;25986;-85
2022/04/29 06:15:53;;;;;;;13.85;8.30;;;;;;;23.22;52.98;99737.36;1674929;85;25614;-85
2022/04/29 06:18:20;;;;;;;11.90;8.18;;;;;;;23.22;53.05;99741.55;1634851;87;27457;-85
2022/04/29 06:20:46;;;;;;;11.68;7.65;;;;;;;23.21;53.12;99740.77;1634568;86;25464;-86
2022/04/29 06:23:13;;;;;;;12.60;8.00;;;;;;;23.22;53.15;99738.77;1634717;87;25640;-86
2022/04/29 06:25:39;;;;;;;11.63;7.90;;;;;;;23.23;53.21;99739.00;1645494;87;26075;-86
2022/04/29 06:28:06;;;;;;;13.38;7.87;;;;;;;23.23;53.23;99739.00;1674988;85;25679;-85
2022/04/29 06:30:33;;;;;;;12.68;8.20;;;;;;;23.22;53.26;99733.98;1632194;87;27395;-85
2022/04/29 06:32:59;;;;;;;10.48;7.55;;;;;;;23.23;53.32;99735.59;1638230;87;25767;-86
2022/04/29 06:35:26;;;;;;;14.70;7.72;;;;;;;23.24;53.37;99736.41;1651595;86;25667;-85
2022/04/29 06:37:52;;;;;;;12.20;7.45;;;;;;;23.24;53.40;99737.23;1638338;87;26703;-86
2022/04/29 06:40:19;;;;;;;11.28;7.85;;;;;;;23.24;53.46;99734.43;1648736;85;25648;-86
2022/04/29 06:42:46;;;;;;;12.85;7.67;;;;;;;23.24;53.53;99736.41;1638571;87;27523;-86
2022/04/29 06:45:14;;;;;;;11.80;7.28;;;;;;;23.28;53.54;99738.09;1651489;86;25704;-86
2022/04/29 06:47:41;;;;;;;11.35;7.15;;;;;;;23.29;53.54;99736.89;1651546;86;25482;-85
2022/04/29 06:50:10;;;;;;;11.75;7.67;;;;;;;23.30;53.55;99734.33;1638319;86;26902;-86
2022/04/29 06:52:37;;;;;;;9.73;7.15;;;;;;;23.30;53.59;99739.92;1651546;86;25580;-86
2022/04/29 06:55:04;;;;;;;12.93;7.78;;;;;;;23.30;53.57;99746.92;1638546;86;27602;-86
2022/04/29 06:57:31;;;;;;;11.50;7.58;;;;;;;23.31;53.58;99740.13;1651348;86;25694;-86
2022/04/29 06:59:58;;;;;;;10.75;7.05;;;;;;;23.33;53.56;99744.53;1638602;87;25750;-88
2022/04/29 07:02:25;;;;;;;11.00;7.33;;;;;;;23.35;53.52;99743.58;1651514;86;26017;-86
2022/04/29 07:04:53;;;;;;;10.25;6.95;;;;;;;23.37;53.50;99746.82;1638220;87;25703;-86
2022/04/29 07:07:20;;;;;;;10.72;7.60;;;;;;;23.38;53.52;99742.28;1651291;86;27443;-86
2022/04/29 07:09:46;;;;;;;10.70;7.28;;;;;;;23.39;53.53;99749.48;1638440;87;25685;-86
2022/04/29 07:12:13;;;;;;;10.93;7.47;;;;;;;23.42;53.51;99759.10;1651406;85;25650;-86
2022/04/29 07:14:39;;;;;;;11.15;7.20;;;;;;;23.43;53.50;99750.95;1638529;87;26702;-86
2022/04/29 07:17:08;;;;;;;10.15;7.10;;;;;;;23.45;53.51;99753.37;1651555;86;25679;-86
2022/04/29 07:19:36;;;;;;;11.00;6.92;;;;;;;23.48;53.49;99756.79;1651138;86;26800;-86
2022/04/29 07:22:04;;;;;;;11.10;7.33;;;;;;;23.48;53.49;99761.80;1638131;87;25489;-86
2022/04/29 07:24:31;;;;;;;11.40;7.50;;;;;;;23.50;53.48;99753.03;1651571;85;25662;-86
2022/04/29 07:26:57;;;;;;;10.98;7.50;;;;;;;23.50;53.46;99759.45;1638563;87;26714;-86
2022/04/29 07:29:24;;;;;;;12.15;8.20;;;;;;;23.52;53.45;99760.47;1651467;85;25753;-86
2022/04/29 07:31:50;;;;;;;10.08;7.00;;;;;;;23.53;53.42;99759.27;1651055;85;28131;-86
2022/04/29 07:34:16;;;;;;;10.23;7.05;;;;;;;23.55;53.40;99766.10;1651082;86;25778;-86
2022/04/29 07:42:12;;;;;;;11.33;7.47;;;;;;;23.59;53.33;99755.56;1637880;87;25676;-86
2022/04/29 07:44:38;;;;;;;10.30;7.15;;;;;;;23.59;53.29;99756.38;1651031;86;27381;-86
2022/04/29 07:47:06;;;;;;;10.08;7.03;;;;;;;23.60;53.25;99753.00;1650943;85;25488;-86
2022/04/29 07:49:32;;;;;;;10.98;7.53;;;;;;;23.59;53.22;99759.17;1637995;86;25656;-86
2022/04/29 07:51:59;;;;;;;11.50;7.40;;;;;;;23.60;53.13;99748.80;1650907;86;26803;-86
2022/04/29 07:54:25;;;;;;;9.18;6.87;;;;;;;23.59;53.14;99747.98;1638342;86;25795;-86
2022/04/29 07:56:53;;;;;;;9.30;6.50;;;;;;;23.62;53.14;99750.03;1645476;85;27380;-86
2022/04/29 07:59:20;;;;;;;9.78;6.50;;;;;;;23.63;53.08;99744.64;1620178;87;25751;-86
2022/04/29 08:01:47;;;;;;;8.53;6.47;;;;;;;23.63;53.07;99737.64;1636801;86;25755;-86
2022/04/29 08:04:13;;;;;;;10.23;6.60;;;;;;;23.65;53.03;99742.28;1626306;87;26060;-86
2022/04/29 08:06:39;;;;;;;10.50;6.78;;;;;;;23.66;53.02;99732.70;1651018;86;25421;-86
2022/04/29 08:09:08;;;;;;;10.32;6.75;;;;;;;23.69;53.04;99737.54;1651075;86;26868;-86
2022/04/29 08:11:34;;;;;;;7.70;6.50;;;;;;;23.72;53.02;99733.78;1637820;86;25766;-86
2022/04/29 08:14:00;;;;;;;9.33;6.47;;;;;;;23.74;53.04;99731.39;1650938;85;25721;-86
2022/04/29 08:16:27;;;;;;;10.50;6.55;;;;;;;23.76;53.01;99727.05;1638267;86;26503;-86
2022/04/29 08:18:53;;;;;;;10.50;7.12;;;;;;;23.78;53.01;99732.27;1651081;86;25692;-86
2022/04/29 08:21:19;;;;;;;10.40;6.53;;;;;;;23.77;53.00;99731.45;1650928;86;27313;-87
2022/04/29 08:23:46;;;;;;;9.90;6.90;;;;;;;23.77;52.99;99729.23;1638349;87;25751;-86
2022/04/29 08:26:12;;;;;;;9.80;6.62;;;;;;;23.77;52.98;99727.84;1651348;86;25620;-87
2022/04/29 08:28:38;;;;;;;9.60;6.65;;;;;;;23.77;52.93;99733.44;1638267;86;26011;-86
2022/04/29 08:31:05;;;;;;;9.33;6.70;;;;;;;23.79;52.94;99725.48;1655152;84;25450;-86
2022/04/29 08:33:31;;;;;;;8.98;6.15;;;;;;;23.80;52.90;99727.91;1634757;87;27403;-87
2022/04/29 08:35:57;;;;;;;8.85;6.00;;;;;;;23.84;52.82;99722.95;1634838;87;25750;-87
2022/04/29 08:38:24;;;;;;;9.80;6.20;;;;;;;23.84;52.74;99726.56;1645475;85;25683;-87
2022/04/29 08:40:50;;;;;;;8.48;6.03;;;;;;;23.86;52.71;99724.17;1674973;85;26051;-87
2022/04/29 08:43:21;;;;;;;8.20;6.12;;;;;;;23.88;52.69;99716.22;1634899;87;25617;-87
2022/04/29 08:45:45;;;;;;;9.73;5.92;;;;;;;23.89;52.67;99720.63;1663536;83;25875;-87
2022/04/29 08:48:12;;;;;;;8.98;6.40;;;;;;;23.89;52.66;99718.44;1645454;85;25745;-87
2022/04/29 08:50:39;;;;;;;7.17;5.78;;;;;;;23.90;52.55;99722.25;1674652;85;25817;-87
2022/04/29 08:53:06;;;;;;;8.45;6.15;;;;;;;23.92;52.50;99723.27;1630680;86;26074;-87
2022/04/29 09:01:10;;;;;;;8.85;6.05;;;;;;;23.90;52.46;99719.45;1638706;86;25608;-87
2022/04/29 09:03:38;;;;;;;8.18;5.50;;;;;;;23.90;52.48;99717.23;1686719;84;25788;-87
2022/04/29 09:06:06;;;;;;;7.60;5.60;;;;;;;23.89;52.48;99726.22;1689826;84;26003;-87
2022/04/29 09:08:44;;;;;;;8.05;5.80;;;;;;;23.89;52.50;99722.63;1689737;83;25686;-87
2022/04/29 09:11:14;;;;;;;10.58;5.85;;;;;;;23.89;52.52;99719.83;1689601;83;27552;-86
2022/04/29 09:13:41;;;;;;;10.08;5.72;;;;;;;23.89;52.53;99721.23;1683833;84;25582;-86
2022/04/29 09:16:11;;;;;;;6.85;4.90;;;;;;;23.88;52.56;99707.00;1686817;84;25483;-86
2022/04/29 09:18:49;;;;;;;7.05;4.95;;;;;;;23.89;52.21;99708.64;1686785;84;34823;-86
2022/04/29 09:21:26;;;;;;;8.30;5.30;;;;;;;23.87;52.13;99702.59;1686446;84;25721;-86
2022/04/29 09:23:59;;;;;;;6.10;4.90;;;;;;;23.88;52.14;99711.20;1686519;84;27547;-86
2022/04/29 09:26:35;;;;;;;7.10;5.00;;;;;;;23.88;51.97;99701.41;1686746;84;25452;-87
2022/04/29 09:29:15;;;;;;;7.37;5.20;;;;;;;23.89;51.78;99696.04;1686751;84;25678;-87
2022/04/29 09:31:58;;;;;;;6.92;4.90;;;;;;;23.89;51.87;99693.24;1687598;84;26077;-86
2022/04/29 09:34:46;;;;;;;6.08;5.10;;;;;;;23.87;51.75;99697.00;1689433;84;25396;-86
2022/04/29 09:37:19;;;;;;;8.93;5.55;;;;;;;23.86;51.96;99694.78;1689617;84;27396;-87
2022/04/29 09:40:03;;;;;;;8.40;5.35;;;;;;;23.86;52.02;99691.20;1689498;84;26952;-86
2022/04/29 09:42:40;;;;;;;7.67;4.85;;;;;;;23.86;52.12;99690.59;1688012;84;25462;-86
2022/04/29 09:45:22;;;;;;;6.42;4.85;;;;;;;23.85;52.23;99688.17;1689705;84;26055;-87
2022/04/29 09:48:01;;;;;;;6.90;4.70;;;;;;;23.85;52.26;99683.39;1689575;84;25638;-87
2022/04/29 09:50:47;;;;;;;8.43;5.05;;;;;;;23.85;52.16;99679.19;1688033;84;25925;-87
2022/04/29 09:53:26;;;;;;;6.90;4.78;;;;;;;23.84;52.02;99685.17;1688223;84;25707;-87
2022/04/29 09:56:08;;;;;;;7.37;4.40;;;;;;;23.85;51.79;99674.17;1686478;83;25679;-86
2022/04/29 09:58:34;;;;;;;5.90;4.70;;;;;;;23.83;51.36;99665.37;1689712;84;26083;-87
2022/04/29 10:01:04;;;;;;;8.70;4.67;;;;;;;23.81;51.38;99667.15;1684024;84;25636;-87
2022/04/29 10:03:35;;;;;;;6.22;4.37;;;;;;;23.79;51.35;99667.53;1673461;84;28700;-87
2022/04/29 10:06:03;;;;;;;5.67;4.50;;;;;;;23.80;51.27;99665.52;1661522;85;25751;-87
2022/04/29 10:08:31;;;;;;;7.85;4.47;;;;;;;23.81;51.09;99667.94;1694130;84;25729;-86
2022/04/29 10:10:59;;;;;;;6.20;3.80;;;;;;;23.80;50.17;99666.91;1662095;86;27114;-87
2022/04/29 10:13:27;;;;;;;5.30;3.80;;;;;;;23.79;49.88;99658.31;1661904;86;25249;-87
2022/04/29 10:15:54;;;;;;;6.08;3.75;;;;;;;23.77;49.76;99657.30;1661957;86;27359;-86
2022/04/29 10:21:16;;;;;;;5.97;4.12;;;;;;;23.75;49.58;99662.45;1661754;86;26470;-86
2022/04/29 10:23:49;;;;;;;6.95;4.90;;;;;;;23.74;49.49;99665.05;1661718;86;26055;-87
2022/04/29 10:26:18;;;;;;;9.95;5.78;;;;;;;23.71;49.63;99660.21;1661472;86;25828;-87
2022/04/29 10:28:45;;;;;;;9.68;6.42;;;;;;;23.71;49.58;99662.22;1661940;86;28226;-87
2022/04/29 10:31:18;;;;;;;11.22;7.10;;;;;;;23.67;49.35;99655.98;1661915;86;25778;-87
2022/04/29 10:33:45;;;;;;;9.90;7.12;;;;;;;23.67;49.29;99653.19;1622391;84;25741;-87
2022/04/29 10:36:16;;;;;;;12.13;7.42;;;;;;;23.67;49.18;99647.59;1622391;88;26768;-87
2022/04/29 10:38:46;;;;;;;9.48;6.42;;;;;;;23.67;49.03;99645.38;1622395;87;25794;-87
2022/04/29 10:41:26;;;;;;;8.98;6.40;;;;;;;23.66;49.00;99643.77;1622543;88;27456;-87
2022/04/29 10:43:58;;;;;;;9.70;6.57;;;;;;;23.65;49.03;99637.36;1622481;88;25676;-87
2022/04/29 10:46:39;;;;;;;9.55;6.58;;;;;;;23.63;48.99;99634.13;1622760;88;25830;-87
2022/04/29 10:49:26;;;;;;;9.88;5.97;;;;;;;23.63;48.95;99629.92;1622509;88;26041;-87
2022/04/29 10:52:01;;;;;;;8.03;5.33;;;;;;;23.64;48.80;99634.36;1622691;87;25813;-87
2022/04/29 10:54:42;;;;;;;10.30;6.00;;;;;;;23.62;48.80;99630.30;1622404;87;26075;-87
2022/04/29 10:57:12;;;;;;;8.25;5.62;;;;;;;23.59;48.69;99624.89;1619522;88;25689;-87
2022/04/29 11:00:00;;;;;;;9.03;5.25;;;;;;;23.59;48.52;99632.46;1622783;86;25752;-87
2022/04/29 11:02:32;;;;;;;7.17;4.80;;;;;;;23.58;48.67;99626.66;1622526;88;26480;-87
2022/04/29 11:05:01;;;;;;;7.25;5.12;;;;;;;23.56;48.41;99628.44;1622351;87;25781;-87
2022/04/29 11:07:42;;;;;;;8.48;4.85;;;;;;;23.53;48.33;99629.20;1622583;87;27391;-87
2022/04/29 11:10:22;;;;;;;7.85;4.65;;;;;;;23.53;48.20;99622.20;1622560;88;25768;-87
2022/04/29 11:13:03;;;;;;;8.13;5.20;;;;;;;23.50;47.45;99613.17;1622359;88;25734;-87
2022/04/29 11:15:46;;;;;;;6.97;4.60;;;;;;;23.48;47.17;99605.73;1654701;85;25703;-87
2022/04/29 11:18:26;;;;;;;6.30;3.90;;;;;;;23.48;47.16;99614.13;1655074;86;25704;-87
2022/04/29 11:20:59;;;;;;;;;;;;;;;23.46;46.75;99620.72;1657346;86;27425;-87
2022/04/29 11:26:18;;;;;;;6.60;3.90;;;;;;;23.39;46.66;99620.01;1654612;86;25763;-87
2022/04/29 11:28:48;;;;;;;6.25;4.10;;;;;;;23.38;46.83;99614.21;1654939;86;26822;-87
2022/04/29 11:31:15;;;;;;;7.75;4.55;;;;;;;23.37;46.70;99613.98;1654893;86;25247;-87
2022/04/29 11:33:41;;;;;;;8.68;4.85;;;;;;;23.36;46.45;99610.36;1668498;85;27375;-87
2022/04/29 11:36:11;;;;;;;7.55;4.67;;;;;;;23.35;46.39;99607.95;1671787;85;25255;-87
2022/04/29 11:38:49;;;;;;;8.93;5.30;;;;;;;23.33;46.30;99601.91;1671886;85;25767;-87
2022/04/29 11:41:27;;;;;;;8.93;5.00;;;;;;;23.33;46.13;99604.70;1671534;85;26057;-87
2022/04/29 11:43:52;;;;;;;8.13;4.92;;;;;;;23.30;45.98;99588.10;1671030;85;25751;-87
2022/04/29 11:46:21;;;;;;;7.85;4.70;;;;;;;23.29;45.53;99588.69;1671771;85;27461;-87
2022/04/29 11:48:59;;;;;;;8.93;4.85;;;;;;;23.28;45.31;99583.47;1671913;85;25823;-88
2022/04/29 11:51:27;;;;;;;7.53;4.47;;;;;;;23.28;45.61;99583.47;1671905;85;25683;-87
2022/04/29 11:54:03;;;;;;;8.20;4.25;;;;;;;23.29;45.68;99592.88;1669406;85;26081;-87
2022/04/29 11:56:39;;;;;;;8.68;4.72;;;;;;;23.30;45.75;99588.10;1671545;85;25774;-87
2022/04/29 11:59:08;;;;;;;7.30;4.67;;;;;;;23.29;45.98;99581.70;1672066;85;27386;-87
2022/04/29 12:01:36;;;;;;;7.78;4.58;;;;;;;23.27;46.16;99572.89;1672053;85;25832;-87